createdAt,value
2018-06-11T00:00:02.660Z,25.10
2018-06-11T00:01:07.342Z,25.10
2018-06-11T00:02:12.268Z,25.10
2018-06-11T00:03:17.069Z,25.10
2018-06-11T00:04:21.889Z,25.00
2018-06-11T00:05:26.828Z,25.00
2018-06-11T00:06:31.618Z,25.00
2018-06-11T00:07:36.555Z,25.00
2018-06-11T00:08:41.594Z,25.00
2018-06-11T00:09:46.501Z,25.00
2018-06-11T00:10:51.395Z,25.00
2018-06-11T00:11:56.473Z,25.00
2018-06-11T00:13:01.681Z,25.00
2018-06-11T00:14:06.611Z,25.00
2018-06-11T00:15:11.589Z,25.00
2018-06-11T00:16:16.617Z,25.00
2018-06-11T00:17:21.687Z,25.00
2018-06-11T00:18:26.725Z,25.00
2018-06-11T00:19:31.645Z,25.00
2018-06-11T00:20:36.616Z,25.00
2018-06-11T00:21:41.651Z,25.00
2018-06-11T00:22:46.606Z,25.00
2018-06-11T00:23:51.569Z,25.00
2018-06-11T00:24:56.487Z,25.00
2018-06-11T00:26:01.435Z,25.00
2018-06-11T00:27:06.572Z,25.00
2018-06-11T00:28:11.484Z,25.00
2018-06-11T00:29:16.690Z,25.00
2018-06-11T00:30:21.538Z,25.00
2018-06-11T00:31:26.371Z,25.00
2018-06-11T00:32:31.264Z,25.00
2018-06-11T00:33:36.395Z,25.00
2018-06-11T00:34:41.566Z,25.00
2018-06-11T00:35:46.709Z,25.00
2018-06-11T00:36:51.776Z,25.00
2018-06-11T00:37:56.900Z,25.00
2018-06-11T00:39:01.989Z,25.00
2018-06-11T00:40:06.950Z,25.00
2018-06-11T00:41:11.897Z,25.00
2018-06-11T00:42:16.959Z,25.00
2018-06-11T00:43:21.904Z,25.00
2018-06-11T00:44:26.874Z,25.00
2018-06-11T00:45:31.914Z,25.00
2018-06-11T00:46:37.267Z,25.00
2018-06-11T00:47:42.158Z,25.00
2018-06-11T00:48:47.215Z,25.00
2018-06-11T00:49:51.999Z,25.00
2018-06-11T00:50:57.242Z,24.90
2018-06-11T00:52:02.286Z,24.90
2018-06-11T00:53:07.105Z,24.90
2018-06-11T00:54:11.998Z,24.90
2018-06-11T00:55:16.862Z,25.00
2018-06-11T00:56:21.632Z,24.90
2018-06-11T00:57:26.351Z,24.90
2018-06-11T00:58:31.215Z,24.90
2018-06-11T00:59:36.065Z,24.90
2018-06-11T01:00:40.906Z,24.90
2018-06-11T01:01:45.899Z,24.90
2018-06-11T01:02:50.690Z,24.90
2018-06-11T01:03:55.679Z,24.90
2018-06-11T01:05:00.457Z,24.90
2018-06-11T01:06:05.172Z,24.90
2018-06-11T01:07:10.054Z,24.90
2018-06-11T01:08:14.908Z,24.90
2018-06-11T01:09:19.682Z,24.90
2018-06-11T01:10:24.453Z,24.90
2018-06-11T01:11:29.199Z,24.90
2018-06-11T01:12:34.049Z,24.90
2018-06-11T01:13:38.986Z,24.90
2018-06-11T01:14:43.953Z,24.90
2018-06-11T01:15:48.729Z,24.90
2018-06-11T01:16:53.682Z,24.90
2018-06-11T01:17:58.691Z,24.90
2018-06-11T01:19:03.658Z,24.90
2018-06-11T01:20:08.508Z,24.90
2018-06-11T01:21:13.616Z,24.90
2018-06-11T01:22:18.554Z,24.90
2018-06-11T01:23:23.604Z,24.90
2018-06-11T01:24:28.476Z,24.90
2018-06-11T01:25:33.355Z,24.90
2018-06-11T01:26:38.309Z,24.90
2018-06-11T01:27:43.350Z,24.90
2018-06-11T01:28:48.290Z,24.90
2018-06-11T01:29:53.278Z,24.90
2018-06-11T01:30:58.364Z,24.90
2018-06-11T01:32:03.498Z,24.90
2018-06-11T01:33:08.367Z,24.90
2018-06-11T01:34:13.467Z,24.80
2018-06-11T01:35:18.697Z,24.80
2018-06-11T01:36:23.744Z,24.80
2018-06-11T01:37:28.814Z,24.80
2018-06-11T01:38:33.797Z,24.80
2018-06-11T01:39:38.784Z,24.80
2018-06-11T01:40:43.656Z,24.80
2018-06-11T01:41:48.593Z,24.80
2018-06-11T01:42:53.610Z,24.80
2018-06-11T01:43:58.679Z,24.80
2018-06-11T01:45:03.645Z,24.80
2018-06-11T01:46:08.596Z,24.80
2018-06-11T01:47:13.580Z,24.80
2018-06-11T01:48:18.591Z,24.80
2018-06-11T01:49:23.524Z,24.80
2018-06-11T01:50:28.476Z,24.80
2018-06-11T01:51:33.339Z,24.80
2018-06-11T01:52:38.117Z,24.80
2018-06-11T01:53:43.058Z,24.80
2018-06-11T01:54:48.047Z,24.80
2018-06-11T01:55:52.966Z,24.70
2018-06-11T01:56:57.866Z,24.80
2018-06-11T01:58:02.714Z,24.80
2018-06-11T01:59:07.683Z,24.70
2018-06-11T02:00:12.570Z,24.70
2018-06-11T02:01:17.530Z,24.80
2018-06-11T02:02:22.450Z,24.70
2018-06-11T02:03:27.236Z,24.70
2018-06-11T02:04:32.244Z,24.70
2018-06-11T02:05:37.160Z,24.70
2018-06-11T02:06:42.206Z,24.70
2018-06-11T02:07:47.066Z,24.70
2018-06-11T02:08:51.999Z,24.70
2018-06-11T02:09:56.935Z,24.70
2018-06-11T02:11:01.874Z,24.70
2018-06-11T02:12:06.809Z,24.70
2018-06-11T02:13:11.774Z,24.70
2018-06-11T02:14:16.664Z,24.70
2018-06-11T02:15:21.541Z,24.80
2018-06-11T02:16:26.418Z,24.70
2018-06-11T02:17:31.437Z,24.70
2018-06-11T02:18:36.401Z,24.70
2018-06-11T02:19:41.422Z,24.70
2018-06-11T02:20:46.370Z,24.70
2018-06-11T02:21:51.333Z,24.70
2018-06-11T02:22:56.276Z,24.70
2018-06-11T02:24:01.216Z,24.70
2018-06-11T02:25:06.061Z,24.70
2018-06-11T02:26:10.884Z,24.70
2018-06-11T02:27:15.848Z,24.70
2018-06-11T02:28:20.927Z,24.70
2018-06-11T02:29:25.720Z,24.70
2018-06-11T02:30:30.818Z,24.70
2018-06-11T02:31:35.837Z,24.70
2018-06-11T02:32:40.832Z,24.70
2018-06-11T02:33:45.853Z,24.70
2018-06-11T02:34:50.840Z,24.70
2018-06-11T02:35:55.804Z,24.70
2018-06-11T02:37:00.849Z,24.70
2018-06-11T02:38:05.804Z,24.70
2018-06-11T02:39:10.822Z,24.70
2018-06-11T02:40:15.838Z,24.70
2018-06-11T02:41:20.746Z,24.70
2018-06-11T02:42:25.634Z,24.70
2018-06-11T02:43:30.467Z,24.70
2018-06-11T02:44:35.461Z,24.70
2018-06-11T02:45:40.313Z,24.70
2018-06-11T02:46:45.409Z,24.70
2018-06-11T02:47:50.202Z,24.70
2018-06-11T02:48:55.156Z,24.70
2018-06-11T02:50:00.198Z,24.70
2018-06-11T02:51:05.110Z,24.70
2018-06-11T02:52:10.008Z,24.70
2018-06-11T02:53:14.927Z,24.70
2018-06-11T02:54:19.723Z,24.70
2018-06-11T02:55:24.561Z,24.70
2018-06-11T02:56:29.619Z,24.70
2018-06-11T02:57:34.751Z,24.70
2018-06-11T02:58:39.748Z,24.60
2018-06-11T02:59:44.658Z,24.60
2018-06-11T03:00:49.457Z,24.60
2018-06-11T03:01:54.458Z,24.60
2018-06-11T03:02:59.218Z,24.60
2018-06-11T03:04:03.991Z,24.60
2018-06-11T03:05:08.943Z,24.60
2018-06-11T03:06:13.865Z,24.60
2018-06-11T03:07:18.908Z,24.60
2018-06-11T03:08:23.722Z,24.60
2018-06-11T03:09:28.560Z,24.60
2018-06-11T03:10:33.303Z,24.60
2018-06-11T03:11:38.027Z,24.60
2018-06-11T03:12:43.007Z,24.60
2018-06-11T03:13:48.047Z,24.60
2018-06-11T03:14:52.838Z,24.60
2018-06-11T03:15:57.944Z,24.60
2018-06-11T03:17:02.931Z,24.60
2018-06-11T03:18:07.868Z,24.60
2018-06-11T03:19:12.710Z,24.60
2018-06-11T03:20:17.605Z,24.60
2018-06-11T03:21:22.644Z,24.60
2018-06-11T03:22:27.505Z,24.60
2018-06-11T03:23:32.502Z,24.60
2018-06-11T03:24:37.453Z,24.60
2018-06-11T03:25:42.390Z,24.50
2018-06-11T03:26:47.198Z,24.60
2018-06-11T03:27:52.030Z,24.50
2018-06-11T03:28:56.907Z,24.50
2018-06-11T03:30:01.737Z,24.50
2018-06-11T03:31:06.516Z,24.50
2018-06-11T03:32:11.620Z,24.50
2018-06-11T03:33:16.481Z,24.50
2018-06-11T03:34:21.416Z,24.50
2018-06-11T03:35:26.221Z,24.50
2018-06-11T03:36:31.057Z,24.60
2018-06-11T03:37:35.956Z,24.50
2018-06-11T03:38:40.900Z,24.50
2018-06-11T03:39:45.687Z,24.50
2018-06-11T03:40:51.206Z,24.50
2018-06-11T03:41:56.091Z,24.50
2018-06-11T03:45:02.528Z,24.50
2018-06-11T03:46:07.401Z,24.50
2018-06-11T03:47:12.290Z,24.50
2018-06-11T03:48:17.212Z,24.50
2018-06-11T03:49:22.089Z,24.40
2018-06-11T03:50:27.071Z,24.40
2018-06-11T03:51:31.880Z,24.40
2018-06-11T03:52:36.757Z,24.40
2018-06-11T03:53:41.588Z,24.50
2018-06-11T03:54:46.546Z,24.50
2018-06-11T03:55:51.392Z,24.50
2018-06-11T03:57:02.229Z,24.50
2018-06-11T03:58:07.261Z,24.50
2018-06-11T03:59:12.218Z,24.50
2018-06-11T04:00:17.063Z,24.50
2018-06-11T04:01:22.005Z,24.50
2018-06-11T04:02:26.950Z,24.50
2018-06-11T04:03:31.889Z,24.50
2018-06-11T04:04:36.869Z,24.40
2018-06-11T04:05:41.703Z,24.40
2018-06-11T04:06:46.701Z,24.40
2018-06-11T04:07:51.489Z,24.40
2018-06-11T04:08:56.472Z,24.40
2018-06-11T04:10:01.318Z,24.40
2018-06-11T04:11:06.315Z,24.40
2018-06-11T04:12:11.123Z,24.40
2018-06-11T04:13:16.036Z,24.30
2018-06-11T04:14:21.009Z,24.30
2018-06-11T04:15:26.122Z,24.40
2018-06-11T04:16:32.140Z,24.30
2018-06-11T04:17:37.147Z,24.30
2018-06-11T04:18:42.375Z,24.30
2018-06-11T04:19:47.230Z,24.30
2018-06-11T04:20:52.230Z,24.30
2018-06-11T04:21:57.279Z,24.30
2018-06-11T04:23:02.277Z,24.30
2018-06-11T04:24:07.168Z,24.30
2018-06-11T04:25:12.120Z,24.30
2018-06-11T04:26:17.097Z,24.30
2018-06-11T04:27:22.123Z,24.30
2018-06-11T04:28:27.058Z,24.30
2018-06-11T04:29:32.083Z,24.30
2018-06-11T04:30:37.090Z,24.30
2018-06-11T04:31:41.899Z,24.30
2018-06-11T04:32:46.805Z,24.30
2018-06-11T04:33:51.718Z,24.30
2018-06-11T04:34:56.654Z,24.30
2018-06-11T04:36:01.499Z,24.30
2018-06-11T04:37:06.465Z,24.30
2018-06-11T04:38:11.431Z,24.30
2018-06-11T04:39:16.371Z,24.30
2018-06-11T04:40:21.526Z,24.30
2018-06-11T04:41:26.520Z,24.30
2018-06-11T04:42:31.463Z,24.30
2018-06-11T04:43:36.578Z,24.30
2018-06-11T04:44:41.482Z,24.30
2018-06-11T04:45:46.418Z,24.30
2018-06-11T04:46:51.382Z,24.30
2018-06-11T04:47:56.291Z,24.30
2018-06-11T04:49:01.356Z,24.30
2018-06-11T04:50:06.225Z,24.30
2018-06-11T04:51:11.275Z,24.30
2018-06-11T04:52:16.772Z,24.30
2018-06-11T04:53:21.545Z,24.30
2018-06-11T04:54:26.333Z,24.30
2018-06-11T04:55:31.152Z,24.30
2018-06-11T04:56:36.183Z,24.30
2018-06-11T04:57:41.215Z,24.30
2018-06-11T04:58:46.141Z,24.30
2018-06-11T04:59:50.944Z,24.30
2018-06-11T05:00:55.775Z,24.30
2018-06-11T05:02:00.803Z,24.30
2018-06-11T05:03:05.889Z,24.30
2018-06-11T05:04:10.985Z,24.30
2018-06-11T05:05:15.996Z,24.30
2018-06-11T05:06:21.255Z,24.30
2018-06-11T05:07:26.263Z,24.30
2018-06-11T05:10:22.064Z,24.30
2018-06-11T05:11:27.110Z,24.30
2018-06-11T05:12:32.074Z,24.30
2018-06-11T05:13:37.173Z,24.30
2018-06-11T05:14:42.226Z,24.30
2018-06-11T05:15:47.332Z,24.30
2018-06-11T05:16:52.308Z,24.30
2018-06-11T05:17:57.261Z,24.30
2018-06-11T05:19:02.449Z,24.30
2018-06-11T05:20:07.500Z,24.30
2018-06-11T05:21:12.670Z,24.30
2018-06-11T05:22:17.939Z,24.30
2018-06-11T05:23:23.118Z,24.30
2018-06-11T05:24:28.413Z,24.30
2018-06-11T05:25:33.420Z,24.30
2018-06-11T05:26:38.342Z,24.30
2018-06-11T05:27:43.317Z,24.30
2018-06-11T05:28:48.353Z,24.30
2018-06-11T05:29:53.248Z,24.30
2018-06-11T05:30:58.250Z,24.30
2018-06-11T05:32:03.313Z,24.30
2018-06-11T05:33:08.216Z,24.30
2018-06-11T05:34:13.208Z,24.30
2018-06-11T05:35:18.240Z,24.30
2018-06-11T05:36:23.144Z,24.30
2018-06-11T05:37:28.216Z,24.30
2018-06-11T05:38:33.224Z,24.30
2018-06-11T05:39:38.402Z,24.30
2018-06-11T05:40:43.474Z,24.30
2018-06-11T05:41:48.837Z,24.30
2018-06-11T05:42:53.773Z,24.30
2018-06-11T05:43:58.774Z,24.30
2018-06-11T05:45:03.728Z,24.30
2018-06-11T05:46:08.720Z,24.30
2018-06-11T05:47:17.839Z,24.40
2018-06-11T05:48:23.351Z,24.30
2018-06-11T05:49:30.496Z,24.30
2018-06-11T05:50:37.540Z,24.30
2018-06-11T05:51:43.093Z,24.30
2018-06-11T05:52:48.026Z,24.30
2018-06-11T05:53:52.945Z,24.40
2018-06-11T05:54:57.851Z,24.40
2018-06-11T05:56:02.779Z,24.30
2018-06-11T05:57:07.698Z,24.40
2018-06-11T05:58:12.740Z,24.40
2018-06-11T05:59:17.675Z,24.40
2018-06-11T06:00:22.565Z,24.40
2018-06-11T06:01:27.885Z,24.30
2018-06-11T06:02:32.789Z,24.30
2018-06-11T06:03:37.644Z,24.30
2018-06-11T06:04:42.615Z,24.30
2018-06-11T06:05:47.530Z,24.30
2018-06-11T06:06:52.374Z,24.30
2018-06-11T06:07:57.356Z,24.30
2018-06-11T06:09:02.348Z,24.30
2018-06-11T06:10:07.218Z,24.30
2018-06-11T06:11:12.268Z,24.30
2018-06-11T06:12:17.293Z,24.30
2018-06-11T06:13:25.216Z,24.30
2018-06-11T06:14:30.317Z,24.30
2018-06-11T06:15:35.368Z,24.30
2018-06-11T06:16:40.553Z,24.30
2018-06-11T06:17:45.491Z,24.30
2018-06-11T06:18:50.633Z,24.30
2018-06-11T06:19:55.794Z,24.30
2018-06-11T06:21:00.919Z,24.30
2018-06-11T06:22:05.735Z,24.40
2018-06-11T06:23:10.614Z,24.30
2018-06-11T06:24:15.692Z,24.30
2018-06-11T06:25:20.606Z,24.30
2018-06-11T06:26:25.517Z,24.40
2018-06-11T06:27:30.608Z,24.30
2018-06-11T06:28:35.494Z,24.30
2018-06-11T06:29:40.473Z,24.30
2018-06-11T06:30:45.479Z,24.40
2018-06-11T06:31:50.580Z,24.40
2018-06-11T06:32:55.607Z,24.30
2018-06-11T06:34:00.652Z,24.40
2018-06-11T06:35:05.523Z,24.30
2018-06-11T06:36:10.522Z,24.30
2018-06-11T06:37:15.540Z,24.30
2018-06-11T06:38:20.494Z,24.30
2018-06-11T06:39:25.432Z,24.30
2018-06-11T06:40:30.416Z,24.30
2018-06-11T06:41:35.406Z,24.30
2018-06-11T06:42:40.469Z,24.30
2018-06-11T06:43:45.429Z,24.30
2018-06-11T06:44:50.431Z,24.30
2018-06-11T06:45:55.358Z,24.30
2018-06-11T06:47:00.263Z,24.30
2018-06-11T06:48:05.246Z,24.30
2018-06-11T06:49:10.331Z,24.30
2018-06-11T06:50:15.217Z,24.30
2018-06-11T06:51:20.095Z,24.30
2018-06-11T06:52:25.171Z,24.30
2018-06-11T06:53:30.101Z,24.30
2018-06-11T06:54:35.008Z,24.30
2018-06-11T06:55:39.859Z,24.30
2018-06-11T06:56:44.743Z,24.30
2018-06-11T06:57:49.661Z,24.30
2018-06-11T06:58:58.147Z,24.30
2018-06-11T07:00:03.483Z,24.30
2018-06-11T07:01:08.445Z,24.30
2018-06-11T07:02:13.428Z,24.30
2018-06-11T07:03:18.405Z,24.30
2018-06-11T07:04:23.214Z,24.30
2018-06-11T07:05:28.063Z,24.30
2018-06-11T07:06:35.086Z,24.30
2018-06-11T07:07:40.664Z,24.30
2018-06-11T07:08:45.771Z,24.30
2018-06-11T07:09:50.765Z,24.30
2018-06-11T07:10:55.719Z,24.30
2018-06-11T07:12:00.655Z,24.30
2018-06-11T07:13:05.635Z,24.30
2018-06-11T07:14:10.576Z,24.30
2018-06-11T07:15:15.562Z,24.30
2018-06-11T07:16:20.545Z,24.30
2018-06-11T07:17:25.531Z,24.30
2018-06-11T07:18:30.483Z,24.30
2018-06-11T07:19:35.474Z,24.30
2018-06-11T07:20:40.535Z,24.30
2018-06-11T07:21:45.707Z,24.30
2018-06-11T07:22:50.755Z,24.30
2018-06-11T07:23:55.934Z,24.30
2018-06-11T07:25:01.082Z,24.30
2018-06-11T07:26:05.962Z,24.30
2018-06-11T07:27:11.147Z,24.30
2018-06-11T07:28:16.198Z,24.30
2018-06-11T07:29:21.069Z,24.30
2018-06-11T07:30:26.200Z,24.30
2018-06-11T07:31:31.800Z,24.30
2018-06-11T07:32:36.974Z,24.30
2018-06-11T07:33:41.997Z,24.30
2018-06-11T07:34:47.165Z,24.30
2018-06-11T07:35:52.072Z,24.30
2018-06-11T07:36:56.994Z,24.20
2018-06-11T07:38:02.375Z,24.30
2018-06-11T07:39:07.318Z,24.20
2018-06-11T07:40:12.375Z,24.30
2018-06-11T07:41:17.517Z,24.20
2018-06-11T07:42:22.967Z,24.30
2018-06-11T07:43:27.850Z,24.30
2018-06-11T07:44:33.109Z,24.30
2018-06-11T07:45:38.134Z,24.30
2018-06-11T07:46:43.055Z,24.30
2018-06-11T07:47:48.358Z,24.30
2018-06-11T07:48:53.625Z,24.30
2018-06-11T07:49:58.672Z,24.30
2018-06-11T07:51:04.101Z,24.30
2018-06-11T07:52:09.196Z,24.30
2018-06-11T07:53:14.120Z,24.30
2018-06-11T07:54:19.089Z,24.30
2018-06-11T07:55:24.036Z,24.30
2018-06-11T07:56:28.950Z,24.30
2018-06-11T07:57:33.947Z,24.30
2018-06-11T07:58:38.966Z,24.30
2018-06-11T07:59:43.905Z,24.30
2018-06-11T08:00:48.905Z,24.30
2018-06-11T08:01:53.878Z,24.30
2018-06-11T08:02:58.915Z,24.30
2018-06-11T08:04:03.885Z,24.30
2018-06-11T08:05:09.009Z,24.30
2018-06-11T08:06:13.996Z,24.30
2018-06-11T08:07:18.982Z,24.30
2018-06-11T08:08:24.039Z,24.30
2018-06-11T08:09:29.080Z,24.30
2018-06-11T08:10:34.088Z,24.30
2018-06-11T08:11:39.103Z,24.30
2018-06-11T08:12:44.167Z,24.30
2018-06-11T08:13:49.105Z,24.30
2018-06-11T08:14:54.339Z,24.30
2018-06-11T08:15:59.384Z,24.30
2018-06-11T08:17:04.408Z,24.30
2018-06-11T08:18:09.379Z,24.30
2018-06-11T08:19:14.545Z,24.30
2018-06-11T08:20:19.699Z,24.30
2018-06-11T08:21:24.836Z,24.30
2018-06-11T08:22:29.915Z,24.30
2018-06-11T08:23:34.940Z,24.30
2018-06-11T08:24:40.099Z,24.30
2018-06-11T08:25:45.009Z,24.30
2018-06-11T08:26:49.969Z,24.30
2018-06-11T08:27:54.938Z,24.30
2018-06-11T08:28:59.818Z,24.30
2018-06-11T08:30:04.723Z,24.30
2018-06-11T08:31:09.811Z,24.30
2018-06-11T08:32:14.969Z,24.30
2018-06-11T08:33:19.983Z,24.40
2018-06-11T08:34:25.065Z,24.40
2018-06-11T08:35:30.140Z,24.40
2018-06-11T08:36:35.194Z,24.40
2018-06-11T08:37:40.298Z,24.40
2018-06-11T08:38:45.271Z,24.40
2018-06-11T08:39:50.402Z,24.40
2018-06-11T08:40:55.442Z,24.40
2018-06-11T08:42:00.559Z,24.40
2018-06-11T08:43:05.822Z,24.40
2018-06-11T08:44:10.946Z,24.40
2018-06-11T08:45:15.975Z,24.40
2018-06-11T08:46:21.109Z,24.40
2018-06-11T08:47:26.952Z,24.40
2018-06-11T08:48:32.080Z,24.40
2018-06-11T08:49:37.161Z,24.40
2018-06-11T08:50:42.332Z,24.40
2018-06-11T08:51:47.481Z,24.40
2018-06-11T08:52:52.570Z,24.40
2018-06-11T08:53:57.647Z,24.40
2018-06-11T08:55:02.792Z,24.40
2018-06-11T08:56:09.160Z,24.40
2018-06-11T08:57:14.295Z,24.40
2018-06-11T08:58:19.313Z,24.40
2018-06-11T08:59:24.424Z,24.40
2018-06-11T09:00:29.551Z,24.40
2018-06-11T09:01:34.664Z,24.40
2018-06-11T09:02:39.764Z,24.40
2018-06-11T09:03:46.080Z,24.40
2018-06-11T09:04:52.669Z,24.40
2018-06-11T09:05:57.746Z,24.40
2018-06-11T09:07:02.914Z,24.40
2018-06-11T09:08:07.868Z,24.40
2018-06-11T09:09:12.949Z,24.40
2018-06-11T09:10:18.048Z,24.40
2018-06-11T09:11:23.099Z,24.40
2018-06-11T09:12:28.099Z,24.40
2018-06-11T09:13:33.129Z,24.40
2018-06-11T09:14:38.133Z,24.40
2018-06-11T09:15:43.262Z,24.40
2018-06-11T09:16:48.403Z,24.40
2018-06-11T09:17:53.540Z,24.40
2018-06-11T09:18:58.598Z,24.50
2018-06-11T09:20:03.713Z,24.50
2018-06-11T09:21:08.812Z,24.50
2018-06-11T09:22:13.782Z,24.40
2018-06-11T09:23:18.742Z,24.40
2018-06-11T09:24:23.731Z,24.40
2018-06-11T09:25:28.835Z,24.40
2018-06-11T09:26:33.902Z,24.40
2018-06-11T09:27:38.986Z,24.40
2018-06-11T09:28:44.133Z,24.40
2018-06-11T09:29:49.318Z,24.40
2018-06-11T09:30:54.365Z,24.40
2018-06-11T09:31:59.291Z,24.40
2018-06-11T09:33:04.390Z,24.40
2018-06-11T09:34:09.456Z,24.40
2018-06-11T09:35:14.743Z,24.40
2018-06-11T09:36:19.791Z,24.40
2018-06-11T09:37:24.765Z,24.40
2018-06-11T09:38:29.768Z,24.40
2018-06-11T09:39:34.668Z,24.50
2018-06-11T09:40:39.692Z,24.50
2018-06-11T09:41:44.840Z,24.50
2018-06-11T09:42:49.886Z,24.50
2018-06-11T09:43:54.988Z,24.50
2018-06-11T09:44:59.979Z,24.50
2018-06-11T09:46:04.963Z,24.50
2018-06-11T09:47:10.203Z,24.50
2018-06-11T09:48:15.114Z,24.50
2018-06-11T09:49:20.153Z,24.50
2018-06-11T09:50:25.201Z,24.50
2018-06-11T09:51:30.612Z,24.50
2018-06-11T09:52:35.590Z,24.50
2018-06-11T09:53:40.648Z,24.50
2018-06-11T09:54:45.729Z,24.50
2018-06-11T09:55:50.841Z,24.50
2018-06-11T09:56:55.951Z,24.50
2018-06-11T09:58:00.948Z,24.50
2018-06-11T09:59:05.983Z,24.50
2018-06-11T10:00:11.043Z,24.50
2018-06-11T10:01:16.054Z,24.50
2018-06-11T10:02:21.132Z,24.50
2018-06-11T10:03:26.098Z,24.50
2018-06-11T10:04:31.160Z,24.50
2018-06-11T10:05:36.297Z,24.50
2018-06-11T10:06:41.426Z,24.50
2018-06-11T10:07:46.609Z,24.60
2018-06-11T10:08:51.926Z,24.60
2018-06-11T10:09:57.064Z,24.50
2018-06-11T10:11:02.198Z,24.60
2018-06-11T10:12:07.321Z,24.50
2018-06-11T10:13:12.521Z,24.50
2018-06-11T10:14:17.589Z,24.50
2018-06-11T10:15:22.701Z,24.60
2018-06-11T10:16:28.254Z,24.60
2018-06-11T10:19:04.562Z,24.60
2018-06-11T10:20:09.746Z,24.60
2018-06-11T10:21:14.773Z,24.60
2018-06-11T10:22:19.772Z,24.60
2018-06-11T10:23:24.925Z,24.60
2018-06-11T10:24:29.848Z,24.60
2018-06-11T10:25:34.870Z,24.60
2018-06-11T10:26:39.964Z,24.60
2018-06-11T10:27:45.051Z,24.60
2018-06-11T10:28:49.942Z,24.60
2018-06-11T10:29:55.029Z,24.60
2018-06-11T10:31:00.058Z,24.60
2018-06-11T10:32:05.190Z,24.60
2018-06-11T10:33:10.355Z,24.60
2018-06-11T10:34:15.237Z,24.60
2018-06-11T10:35:20.365Z,24.60
2018-06-11T10:36:25.508Z,24.60
2018-06-11T10:37:30.692Z,24.60
2018-06-11T10:38:35.937Z,24.60
2018-06-11T10:39:41.127Z,24.60
2018-06-11T10:40:46.300Z,24.60
2018-06-11T10:41:51.322Z,24.60
2018-06-11T10:42:56.337Z,24.60
2018-06-11T10:44:01.237Z,24.60
2018-06-11T10:45:07.555Z,24.60
2018-06-11T10:46:13.068Z,24.60
2018-06-11T10:47:18.101Z,24.60
2018-06-11T10:48:23.019Z,24.60
2018-06-11T10:49:27.984Z,24.60
2018-06-11T10:50:32.968Z,24.60
2018-06-11T10:51:38.196Z,24.60
2018-06-11T10:52:43.372Z,24.70
2018-06-11T10:53:49.021Z,24.60
2018-06-11T10:54:54.369Z,24.60
2018-06-11T10:55:59.870Z,24.60
2018-06-11T10:57:05.474Z,24.60
2018-06-11T10:58:12.848Z,24.60
2018-06-11T10:59:18.370Z,24.60
2018-06-11T11:00:24.829Z,24.60
2018-06-11T11:01:30.243Z,24.60
2018-06-11T11:02:35.911Z,24.60
2018-06-11T11:03:42.551Z,24.60
2018-06-11T11:04:48.037Z,24.60
2018-06-11T11:05:54.952Z,24.60
2018-06-11T11:07:00.303Z,24.60
2018-06-11T11:08:05.821Z,24.60
2018-06-11T11:09:18.985Z,24.60
2018-06-11T11:10:26.495Z,24.60
2018-06-11T11:11:32.196Z,24.60
2018-06-11T11:12:37.970Z,24.60
2018-06-11T11:13:43.542Z,24.60
2018-06-11T11:14:49.530Z,24.60
2018-06-11T11:15:55.097Z,24.60
2018-06-11T11:17:00.645Z,24.60
2018-06-11T11:18:06.550Z,24.60
2018-06-11T11:19:12.911Z,24.60
2018-06-11T11:20:18.235Z,24.60
2018-06-11T11:21:26.627Z,24.60
2018-06-11T11:22:34.413Z,24.60
2018-06-11T11:23:42.614Z,24.60
2018-06-11T11:24:49.355Z,24.60
2018-06-11T11:25:55.469Z,24.60
2018-06-11T11:27:01.258Z,24.60
2018-06-11T11:28:06.673Z,24.60
2018-06-11T11:29:12.363Z,24.60
2018-06-11T11:30:18.205Z,24.60
2018-06-11T11:31:23.685Z,24.60
2018-06-11T11:32:32.546Z,24.60
2018-06-11T11:33:38.824Z,24.60
2018-06-11T11:34:45.134Z,24.70
2018-06-11T11:35:52.377Z,24.70
2018-06-11T11:36:58.578Z,24.70
2018-06-11T11:38:03.660Z,24.70
2018-06-11T11:39:08.758Z,24.70
2018-06-11T11:40:15.534Z,24.70
2018-06-11T11:41:20.494Z,24.70
2018-06-11T11:42:25.568Z,24.60
2018-06-11T11:43:31.138Z,24.60
2018-06-11T11:44:36.007Z,24.60
2018-06-11T11:45:41.100Z,24.60
2018-06-11T11:46:46.194Z,24.60
2018-06-11T11:47:51.200Z,24.70
2018-06-11T11:48:56.381Z,24.70
2018-06-11T11:50:01.420Z,24.70
2018-06-11T11:51:06.710Z,24.70
2018-06-11T11:52:11.718Z,24.70
2018-06-11T11:53:16.921Z,24.70
2018-06-11T11:54:21.883Z,24.70
2018-06-11T11:55:27.090Z,24.70
2018-06-11T11:56:32.034Z,24.70
2018-06-11T11:57:38.037Z,24.70
2018-06-11T11:58:45.103Z,24.70
2018-06-11T11:59:50.181Z,24.70
2018-06-11T12:00:55.364Z,24.60
2018-06-11T12:02:05.505Z,24.60
2018-06-11T12:03:11.261Z,24.60
2018-06-11T12:04:16.431Z,24.60
2018-06-11T12:05:21.766Z,24.60
2018-06-11T12:06:26.892Z,24.60
2018-06-11T12:07:31.918Z,24.60
2018-06-11T12:08:36.913Z,24.60
2018-06-11T12:09:41.880Z,24.60
2018-06-11T12:10:46.935Z,24.60
2018-06-11T12:11:51.925Z,24.60
2018-06-11T12:12:56.940Z,24.70
2018-06-11T12:14:02.096Z,24.60
2018-06-11T12:15:10.874Z,24.60
2018-06-11T12:16:16.083Z,24.60
2018-06-11T12:17:21.047Z,24.60
2018-06-11T12:18:26.305Z,24.60
2018-06-11T12:19:31.241Z,24.60
2018-06-11T12:20:36.340Z,24.60
2018-06-11T12:21:41.444Z,24.60
2018-06-11T12:22:46.660Z,24.60
2018-06-11T12:23:51.852Z,24.60
2018-06-11T12:24:56.853Z,24.60
2018-06-11T12:26:04.811Z,24.60
2018-06-11T12:27:10.751Z,24.60
2018-06-11T12:28:15.912Z,24.60
2018-06-11T12:29:21.041Z,24.60
2018-06-11T12:30:25.993Z,24.60
2018-06-11T12:31:31.076Z,24.60
2018-06-11T12:32:36.202Z,24.60
2018-06-11T12:33:41.208Z,24.60
2018-06-11T12:34:46.190Z,24.70
2018-06-11T12:35:51.000Z,24.70
2018-06-11T12:36:55.958Z,24.70
2018-06-11T12:38:00.784Z,24.70
2018-06-11T12:39:05.761Z,24.70
2018-06-11T12:40:10.946Z,24.70
2018-06-11T12:41:16.054Z,24.70
2018-06-11T12:42:21.168Z,24.60
2018-06-11T12:43:26.179Z,24.70
2018-06-11T12:44:31.020Z,24.70
2018-06-11T12:45:35.976Z,24.70
2018-06-11T12:46:40.880Z,24.70
2018-06-11T12:47:45.827Z,24.70
2018-06-11T12:48:53.710Z,24.70
2018-06-11T12:49:58.997Z,24.70
2018-06-11T12:51:04.239Z,24.70
2018-06-11T12:52:09.180Z,24.70
2018-06-11T12:53:14.338Z,24.70
2018-06-11T12:54:19.512Z,24.70
2018-06-11T12:55:24.475Z,24.70
2018-06-11T12:56:29.665Z,24.70
2018-06-11T12:57:34.625Z,24.70
2018-06-11T12:58:40.514Z,24.70
2018-06-11T12:59:45.588Z,24.70
2018-06-11T13:00:50.655Z,24.70
2018-06-11T13:01:55.574Z,24.70
2018-06-11T13:03:00.448Z,24.70
2018-06-11T13:04:05.314Z,24.70
2018-06-11T13:05:10.210Z,24.70
2018-06-11T13:06:15.264Z,24.70
2018-06-11T13:07:20.423Z,24.70
2018-06-11T13:08:25.613Z,24.70
2018-06-11T13:09:30.798Z,24.70
2018-06-11T13:10:36.196Z,24.70
2018-06-11T13:11:41.188Z,24.70
2018-06-11T13:12:46.034Z,24.70
2018-06-11T13:13:50.986Z,24.80
2018-06-11T13:14:55.984Z,24.70
2018-06-11T13:16:00.876Z,24.80
2018-06-11T13:17:05.830Z,24.80
2018-06-11T13:18:10.724Z,24.80
2018-06-11T13:19:15.977Z,24.80
2018-06-11T13:20:20.913Z,24.80
2018-06-11T13:21:26.046Z,24.80
2018-06-11T13:22:31.241Z,24.80
2018-06-11T13:23:36.131Z,24.80
2018-06-11T13:24:41.015Z,24.80
2018-06-11T13:25:46.124Z,24.80
2018-06-11T13:26:51.066Z,24.80
2018-06-11T13:27:56.326Z,24.80
2018-06-11T13:29:01.524Z,24.80
2018-06-11T13:30:06.649Z,24.80
2018-06-11T13:31:11.676Z,24.80
2018-06-11T13:32:16.695Z,24.80
2018-06-11T13:33:21.896Z,24.80
2018-06-11T13:34:26.832Z,24.80
2018-06-11T13:35:31.910Z,24.80
2018-06-11T13:36:37.197Z,24.80
2018-06-11T13:37:42.362Z,24.80
2018-06-11T13:38:47.361Z,24.80
2018-06-11T13:39:52.572Z,24.80
2018-06-11T13:40:57.491Z,24.80
2018-06-11T13:42:02.918Z,24.80
2018-06-11T13:43:07.969Z,24.80
2018-06-11T13:44:12.910Z,24.80
2018-06-11T13:45:17.832Z,24.80
2018-06-11T13:46:22.838Z,24.80
2018-06-11T13:47:27.931Z,24.80
2018-06-11T13:48:33.141Z,24.80
2018-06-11T13:49:38.220Z,24.80
2018-06-11T13:50:43.258Z,24.80
2018-06-11T13:51:48.221Z,24.80
2018-06-11T13:52:53.292Z,24.80
2018-06-11T13:53:58.262Z,24.80
2018-06-11T13:55:03.396Z,24.80
2018-06-11T13:56:08.394Z,24.80
2018-06-11T13:57:13.612Z,24.80
2018-06-11T13:58:18.579Z,24.80
2018-06-11T13:59:23.468Z,24.80
2018-06-11T14:00:28.452Z,24.80
2018-06-11T14:01:33.462Z,24.80
2018-06-11T14:02:38.703Z,24.80
2018-06-11T14:03:43.729Z,24.80